Terminal Aerodrome Forecast
Issued by NWS St Louis, MO

Home | Current Version | Previous Version | Graphics & Text | Print | Product List | Glossary On
Versions: 1 2 3 4 5 6 7 8 9 10 11 12 13 14 15 16 17 18 19 20 21 22 23 24 25 26 27 28 29 30 31
000
FTUS43 KLSX 230300 AAA
TAFSTL
TAF AMD
KSTL 230301Z 2303/2406 18012G20KT P6SM VCSH OVC025
      TEMPO 2303/2305 6SM -RA OVC015
     FM230900 18010KT 5SM -SHRA SCT009 OVC015
     FM231500 15010KT 3SM -RA OVC007
     FM240300 19008KT 6SM BR OVC007=

USA.gov is the U.S. government's official web portal to all federal, state and local government web resources and services.